Time;durP1;ratioP1;P1;durP2;ratioP2;P2;SDS_P1;SDS_P2;PMS_P1;PMS_P2;Temp;Humidity;BMP_temperature;BMP_pressure;BME280_temperature;BME280_humidity;BME280_pressure;Samples;Min_cycle;Max_cycle;Signal;HPM_P1;HPM_P2
2021/03/27 00:02:04;;;;;;;3.95;1.25;;;6.60;91.00;;;;;;5078228;28;20040;-91
2021/03/27 00:04:37;;;;;;;2.63;1.35;;;6.60;91.00;;;;;;5095613;28;20543;-91
2021/03/27 00:07:23;;;;;;;3.05;1.40;;;6.60;90.80;;;;;;5097611;27;20063;-90
2021/03/27 00:09:53;;;;;;;3.67;1.40;;;6.40;91.10;;;;;;5066402;27;20507;-91
2021/03/27 00:12:43;;;;;;;2.15;1.42;;;6.40;91.10;;;;;;5074037;28;20444;-91
2021/03/27 00:15:17;;;;;;;2.58;1.50;;;6.50;91.10;;;;;;5102705;27;20051;-91
2021/03/27 00:18:10;;;;;;;5.10;1.40;;;6.40;91.50;;;;;;5104304;28;20057;-90
2021/03/27 00:20:58;;;;;;;3.67;1.70;;;6.40;91.60;;;;;;5079528;28;20051;-91
2021/03/27 00:23:31;;;;;;;5.75;1.63;;;6.40;91.80;;;;;;5072944;28;20134;-91
2021/03/27 00:26:07;;;;;;;4.55;1.75;;;6.50;91.80;;;;;;5085099;28;20570;-93
2021/03/27 00:28:47;;;;;;;3.85;1.75;;;6.40;92.10;;;;;;5087743;28;20139;-90
2021/03/27 00:31:22;;;;;;;5.45;1.70;;;6.40;92.30;;;;;;5104693;27;20060;-91
2021/03/27 00:33:58;;;;;;;4.45;1.60;;;6.40;92.50;;;;;;5087320;28;20048;-91
2021/03/27 00:36:29;;;;;;;4.60;1.48;;;6.40;92.40;;;;;;5106900;28;20055;-91
2021/03/27 00:39:14;;;;;;;5.00;1.90;;;6.50;92.50;;;;;;5077145;28;20070;-91
2021/03/27 00:42:02;;;;;;;3.47;1.67;;;6.50;92.40;;;;;;5070240;28;20071;-92
2021/03/27 00:44:33;;;;;;;3.53;1.67;;;6.50;92.60;;;;;;5060708;28;20044;-91
2021/03/27 00:47:01;;;;;;;5.70;1.50;;;6.50;92.70;;;;;;5101572;28;20116;-91
2021/03/27 00:49:49;;;;;;;4.40;1.70;;;6.50;92.70;;;;;;5093717;28;20488;-91
2021/03/27 00:52:18;;;;;;;5.72;1.60;;;6.40;93.00;;;;;;5081340;28;20044;-92
2021/03/27 00:54:55;;;;;;;3.13;1.58;;;6.40;93.10;;;;;;5087597;28;20044;-91
2021/03/27 00:57:31;;;;;;;4.60;1.75;;;6.40;93.20;;;;;;5090654;28;20648;-92
2021/03/27 01:00:11;;;;;;;5.28;1.65;;;6.40;93.30;;;;;;5080043;28;20055;-92
2021/03/27 01:02:46;;;;;;;7.10;2.00;;;6.40;93.50;;;;;;5073247;28;20043;-92
2021/03/27 01:05:16;;;;;;;5.82;1.77;;;6.40;93.50;;;;;;5082739;28;20051;-90
2021/03/27 01:07:42;;;;;;;4.13;1.60;;;6.40;93.60;;;;;;5099176;28;20498;-92
2021/03/27 01:10:14;;;;;;;3.50;1.80;;;6.40;93.40;;;;;;5096790;28;20043;-92
2021/03/27 01:12:42;;;;;;;6.30;1.67;;;6.40;93.20;;;;;;5054579;28;20399;-92
2021/03/27 01:15:13;;;;;;;5.47;1.90;;;6.40;93.50;;;;;;5098722;28;20050;-92
2021/03/27 01:17:48;;;;;;;6.35;3.42;;;6.30;93.50;;;;;;5075523;28;20044;-92
2021/03/27 01:20:17;;;;;;;;;;;6.30;93.60;;;;;;5104927;28;20116;-92
2021/03/27 01:22:46;;;;;;;4.35;2.03;;;6.30;93.70;;;;;;5103470;28;19923;-93
2021/03/27 01:25:13;;;;;;;6.82;2.45;;;6.40;93.70;;;;;;5089512;28;20116;-93
2021/03/27 01:28:12;;;;;;;6.22;1.80;;;6.30;93.70;;;;;;5088845;28;20048;-93
2021/03/27 01:30:59;;;;;;;3.45;2.03;;;6.30;93.60;;;;;;5043708;28;20055;-92
2021/03/27 01:33:38;;;;;;;3.80;2.00;;;6.30;93.70;;;;;;5071316;28;20039;-90
2021/03/27 01:36:12;;;;;;;3.67;1.70;;;6.30;93.70;;;;;;5081556;28;20044;-93
2021/03/27 01:38:41;;;;;;;4.50;2.20;;;6.30;93.70;;;;;;5075214;28;20118;-92
2021/03/27 01:41:24;;;;;;;3.55;1.63;;;6.20;93.70;;;;;;5084917;28;20097;-93
2021/03/27 01:44:08;;;;;;;4.85;1.85;;;6.20;93.70;;;;;;5069782;28;20047;-92
2021/03/27 01:46:58;;;;;;;2.75;1.70;;;6.20;93.80;;;;;;5109739;28;20043;-93
2021/03/27 01:49:29;;;;;;;4.40;2.10;;;6.10;93.90;;;;;;5094493;28;20174;-93
2021/03/27 01:51:57;;;;;;;4.35;2.10;;;6.10;94.00;;;;;;5091769;28;20099;-93
2021/03/27 01:54:39;;;;;;;5.70;1.70;;;6.10;93.90;;;;;;5109071;28;20398;-93
2021/03/27 01:57:14;;;;;;;4.47;1.60;;;6.10;93.90;;;;;;5086220;28;20050;-92
2021/03/27 01:59:51;;;;;;;3.50;1.70;;;6.10;93.90;;;;;;5101348;28;20135;-93
2021/03/27 02:02:42;;;;;;;4.25;1.40;;;6.00;93.90;;;;;;5095373;27;20035;-93
2021/03/27 02:05:13;;;;;;;3.22;1.77;;;6.00;93.90;;;;;;5106654;28;20048;-93
2021/03/27 02:08:07;;;;;;;3.17;1.50;;;6.00;93.90;;;;;;5102830;27;20142;-92
2021/03/27 02:11:01;;;;;;;4.53;1.60;;;6.00;93.90;;;;;;5082254;28;20436;-93
2021/03/27 02:13:31;;;;;;;3.53;2.10;;;6.10;93.70;;;;;;5074630;28;20035;-93
2021/03/27 02:16:30;;;;;;;3.83;1.95;;;6.10;93.60;;;;;;5089635;28;20455;-92
2021/03/27 02:19:04;;;;;;;4.90;2.30;;;6.10;93.50;;;;;;5068369;28;20059;-93
2021/03/27 02:21:32;;;;;;;3.97;2.70;;;6.10;93.60;;;;;;5092983;28;20047;-92
2021/03/27 02:24:09;;;;;;;5.40;3.13;;;6.00;93.70;;;;;;5090801;28;20078;-92
2021/03/27 02:26:51;;;;;;;7.03;3.30;;;6.10;93.70;;;;;;5100751;27;20607;-93
2021/03/27 02:29:31;;;;;;;6.40;3.22;;;6.10;93.70;;;;;;5064976;28;20116;-92
2021/03/27 02:32:21;;;;;;;8.38;3.78;;;6.10;93.80;;;;;;5108124;28;20096;-93
2021/03/27 02:35:01;;;;;;;6.10;3.33;;;6.10;93.60;;;;;;5093558;28;20051;-93
2021/03/27 02:37:36;;;;;;;6.05;3.65;;;6.10;93.70;;;;;;5098873;28;20492;-92
2021/03/27 02:40:15;;;;;;;7.22;3.60;;;6.30;93.60;;;;;;5086058;28;20096;-93
2021/03/27 02:42:55;;;;;;;11.23;4.97;;;6.40;93.50;;;;;;5092188;28;20055;-92
2021/03/27 02:45:31;;;;;;;6.80;4.47;;;6.40;93.20;;;;;;5073842;28;20081;-93
2021/03/27 02:48:01;;;;;;;7.22;4.45;;;6.60;92.80;;;;;;5092963;28;20074;-93
2021/03/27 02:50:56;;;;;;;11.57;5.35;;;6.70;92.60;;;;;;5073821;28;20094;-93
2021/03/27 02:53:34;;;;;;;10.23;5.35;;;6.70;92.50;;;;;;5065163;28;20050;-93
2021/03/27 02:56:15;;;;;;;8.77;4.80;;;6.80;92.20;;;;;;5087248;28;20063;-93
2021/03/27 02:59:07;;;;;;;9.13;4.38;;;6.70;92.40;;;;;;5091485;28;20437;-92
2021/03/27 03:02:03;;;;;;;10.75;5.15;;;6.70;92.60;;;;;;5090089;28;20059;-93
2021/03/27 03:04:32;;;;;;;;;;;6.70;92.60;;;;;;5078839;28;20123;-90
2021/03/27 03:07:35;;;;;;;11.15;4.22;;;6.90;92.40;;;;;;5103026;28;19969;-92
2021/03/27 03:10:26;;;;;;;10.65;5.18;;;6.80;92.40;;;;;;5080678;28;20093;-91
2021/03/27 03:12:59;;;;;;;10.80;5.07;;;6.70;92.50;;;;;;5075090;28;20048;-92
2021/03/27 03:15:41;;;;;;;12.50;5.40;;;6.80;92.20;;;;;;5093448;27;20043;-92
2021/03/27 03:18:29;;;;;;;13.25;5.20;;;6.70;92.20;;;;;;5073580;28;20074;-91
2021/03/27 03:21:17;;;;;;;10.85;4.93;;;6.70;92.50;;;;;;5076288;27;20050;-91
2021/03/27 03:24:24;;;;;;;9.75;4.68;;;6.70;92.60;;;;;;5101645;28;20056;-89
2021/03/27 03:27:05;;;;;;;7.47;4.20;;;6.70;92.40;;;;;;4993390;28;20050;-92
2021/03/27 03:29:55;;;;;;;13.00;6.72;;;6.60;92.60;;;;;;5078801;28;20122;-91
2021/03/27 03:32:42;;;;;;;12.77;4.82;;;6.60;92.80;;;;;;5076438;27;20498;-91
2021/03/27 03:35:32;;;;;;;14.43;5.45;;;6.50;92.70;;;;;;5106916;28;20056;-93
2021/03/27 03:38:31;;;;;;;14.45;5.40;;;6.50;92.90;;;;;;5087019;27;20044;-92
2021/03/27 03:41:15;;;;;;;16.80;7.20;;;6.50;93.20;;;;;;5066116;28;20052;-92
2021/03/27 03:43:47;;;;;;;15.43;7.10;;;6.50;93.10;;;;;;5091741;27;20055;-92
2021/03/27 03:46:37;;;;;;;11.48;5.43;;;6.50;93.10;;;;;;5093357;28;20545;-90
2021/03/27 03:49:11;;;;;;;16.67;4.60;;;6.50;93.20;;;;;;5082647;28;20040;-93
2021/03/27 03:51:46;;;;;;;11.20;4.47;;;6.50;92.90;;;;;;5074997;28;20039;-93
2021/03/27 03:54:30;;;;;;;10.75;4.38;;;6.40;93.00;;;;;;5105932;28;20491;-92
2021/03/27 03:57:29;;;;;;;15.65;4.30;;;6.40;93.10;;;;;;5085226;27;20039;-91
2021/03/27 04:00:15;;;;;;;13.30;4.03;;;6.40;93.00;;;;;;5068136;28;20055;-91
2021/03/27 04:02:58;;;;;;;11.52;3.42;;;6.40;93.00;;;;;;5090588;27;20050;-91
2021/03/27 04:05:39;;;;;;;12.07;3.33;;;6.30;93.00;;;;;;5102065;28;20052;-91
2021/03/27 04:08:22;;;;;;;8.52;3.03;;;6.40;92.50;;;;;;5090590;28;20442;-92
2021/03/27 04:10:56;;;;;;;11.55;3.30;;;6.40;91.50;;;;;;5091192;27;20071;-92
2021/03/27 04:13:38;;;;;;;10.82;2.53;;;6.40;91.00;;;;;;5091445;28;20043;-92
2021/03/27 04:16:14;;;;;;;15.63;3.10;;;6.40;90.20;;;;;;5091403;28;20046;-92
2021/03/27 04:18:40;;;;;;;11.52;2.65;;;6.30;90.00;;;;;;5097194;27;20683;-93
2021/03/27 04:21:21;;;;;;;14.85;2.75;;;6.20;89.70;;;;;;5095116;28;20035;-92
2021/03/27 04:23:47;;;;;;;12.52;2.53;;;6.20;89.80;;;;;;5091847;28;20052;-92
2021/03/27 04:26:31;;;;;;;10.80;2.50;;;6.20;89.70;;;;;;5091905;28;20400;-87
2021/03/27 04:29:08;;;;;;;12.30;2.75;;;6.20;89.30;;;;;;5088961;28;20044;-92
2021/03/27 04:31:55;;;;;;;14.82;2.97;;;6.10;89.10;;;;;;5093073;28;20075;-91
2021/03/27 04:34:31;;;;;;;12.18;3.00;;;6.10;89.70;;;;;;5024703;28;20539;-92
2021/03/27 04:37:02;;;;;;;14.30;3.00;;;6.00;90.10;;;;;;5103911;28;20043;-92
2021/03/27 04:39:48;;;;;;;12.77;3.25;;;6.10;90.10;;;;;;5089689;28;20047;-92
2021/03/27 04:42:20;;;;;;;13.57;2.88;;;6.00;90.10;;;;;;5099880;28;20184;-91
2021/03/27 04:45:17;;;;;;;11.13;2.80;;;6.00;90.40;;;;;;5091781;28;22623;-91
2021/03/27 04:47:56;;;;;;;8.95;2.95;;;6.00;90.40;;;;;;5094362;27;20079;-91
2021/03/27 04:50:35;;;;;;;15.02;2.92;;;5.90;90.60;;;;;;5076274;28;20277;-92
2021/03/27 04:53:25;;;;;;;14.13;2.92;;;5.90;90.80;;;;;;5099992;28;20101;-92
2021/03/27 04:56:27;;;;;;;11.95;2.75;;;5.90;90.90;;;;;;5071890;28;20070;-93
2021/03/27 04:59:40;;;;;;;12.55;3.10;;;5.90;91.10;;;;;;5065811;28;20057;-92
2021/03/27 05:02:17;;;;;;;11.93;3.33;;;5.90;91.20;;;;;;5027374;28;20407;-92
2021/03/27 05:04:42;;;;;;;15.93;3.05;;;5.90;91.30;;;;;;5087391;28;20670;-91
2021/03/27 05:07:24;;;;;;;8.68;2.30;;;5.90;91.50;;;;;;5100854;28;20135;-91
2021/03/27 05:10:13;;;;;;;11.32;2.30;;;6.00;91.60;;;;;;5060133;28;20134;-92
2021/03/27 05:13:06;;;;;;;10.23;2.40;;;6.00;90.40;;;;;;5055910;28;20052;-91
2021/03/27 05:15:41;;;;;;;7.63;2.13;;;5.80;89.60;;;;;;5068607;28;20048;-91
2021/03/27 05:18:41;;;;;;;9.15;2.65;;;5.70;89.50;;;;;;5087643;28;20054;-93
2021/03/27 05:21:25;;;;;;;5.80;2.42;;;5.50;90.50;;;;;;5048828;28;20057;-91
2021/03/27 05:23:59;;;;;;;7.10;2.75;;;5.40;90.50;;;;;;5061939;28;20051;-93
2021/03/27 05:26:55;;;;;;;7.40;2.80;;;5.10;91.40;;;;;;5108819;27;20122;-93
2021/03/27 05:29:27;;;;;;;8.52;2.90;;;5.10;91.80;;;;;;5052087;28;20052;-93
2021/03/27 05:31:56;;;;;;;8.15;3.10;;;5.10;92.30;;;;;;5109922;28;20050;-93
2021/03/27 05:34:27;;;;;;;10.10;3.65;;;5.00;92.50;;;;;;5093075;28;20047;-93
2021/03/27 05:37:11;;;;;;;7.80;3.08;;;5.00;92.80;;;;;;5083426;28;20154;-93
2021/03/27 05:39:45;;;;;;;12.20;3.40;;;5.10;92.80;;;;;;5089211;28;20555;-92
2021/03/27 05:42:49;;;;;;;9.40;3.50;;;5.30;92.80;;;;;;5105631;28;20048;-92
2021/03/27 05:45:58;;;;;;;9.73;3.10;;;5.40;92.50;;;;;;5085452;27;20099;-92
2021/03/27 05:49:03;;;;;;;6.25;3.17;;;5.70;92.10;;;;;;5043874;28;20044;-93
2021/03/27 05:51:56;;;;;;;6.75;3.10;;;5.60;91.60;;;;;;5063742;27;20365;-91
2021/03/27 05:54:40;;;;;;;6.53;3.05;;;5.40;92.20;;;;;;5080129;28;20063;-93
2021/03/27 05:57:30;;;;;;;6.70;2.20;;;5.30;91.70;;;;;;5094364;28;20089;-91
2021/03/27 06:00:17;;;;;;;8.52;2.80;;;5.30;92.00;;;;;;5054622;28;20119;-92
2021/03/27 06:03:24;;;;;;;6.97;2.72;;;5.30;92.20;;;;;;5101062;28;20044;-89
2021/03/27 06:06:11;;;;;;;7.57;2.70;;;5.30;92.30;;;;;;5037753;28;20051;-93
2021/03/27 06:08:46;;;;;;;6.15;2.47;;;5.30;92.70;;;;;;5086257;28;20040;-91
2021/03/27 06:11:14;;;;;;;10.10;3.28;;;5.40;92.70;;;;;;5084525;28;20093;-92
2021/03/27 06:14:08;;;;;;;8.23;2.92;;;5.40;93.00;;;;;;5072196;28;20052;-90
2021/03/27 06:16:48;;;;;;;6.80;2.95;;;5.40;92.80;;;;;;5060901;28;20091;-94
2021/03/27 06:19:38;;;;;;;10.82;3.10;;;5.50;92.60;;;;;;5077325;28;20538;-91
2021/03/27 06:22:23;;;;;;;8.02;2.75;;;5.40;92.70;;;;;;5092139;27;20052;-90
2021/03/27 06:25:13;;;;;;;9.60;2.78;;;5.30;93.00;;;;;;5059835;28;20060;-91
2021/03/27 06:27:51;;;;;;;10.32;2.65;;;5.40;92.80;;;;;;5088873;28;20056;-93
2021/03/27 06:30:48;;;;;;;10.85;2.63;;;5.40;93.30;;;;;;5095002;27;20048;-91
2021/03/27 06:33:34;;;;;;;11.25;3.03;;;5.40;93.10;;;;;;5098587;28;20107;-90
2021/03/27 06:36:05;;;;;;;10.07;2.63;;;5.50;92.90;;;;;;5111675;28;20052;-91
2021/03/27 06:38:43;;;;;;;5.97;1.98;;;5.40;93.10;;;;;;5107197;28;20112;-92
2021/03/27 06:41:38;;;;;;;8.80;2.80;;;5.50;92.80;;;;;;5102365;28;20046;-91
2021/03/27 06:44:41;;;;;;;8.70;2.22;;;5.60;92.80;;;;;;5073966;28;20043;-92
2021/03/27 06:47:40;;;;;;;9.10;2.47;;;5.70;92.40;;;;;;5097685;28;20051;-94
2021/03/27 06:50:48;;;;;;;8.15;2.10;;;5.70;92.10;;;;;;5099735;28;20118;-94
2021/03/27 06:53:26;;;;;;;6.85;2.58;;;5.80;92.00;;;;;;5091589;28;20041;-89
2021/03/27 06:56:04;;;;;;;11.27;3.42;;;5.80;91.80;;;;;;5103685;28;20071;-93
2021/03/27 06:58:42;;;;;;;17.40;3.42;;;5.80;91.90;;;;;;5089936;28;20058;-92
2021/03/27 07:01:33;;;;;;;9.52;2.40;;;5.80;91.90;;;;;;5101226;28;20072;-94
2021/03/27 07:04:28;;;;;;;13.00;3.00;;;5.90;92.00;;;;;;5085017;28;20130;-94
2021/03/27 07:07:06;;;;;;;12.32;2.55;;;6.10;91.30;;;;;;5086946;28;20043;-94
2021/03/27 07:09:52;;;;;;;14.52;2.83;;;6.20;90.80;;;;;;5107675;28;20088;-94
2021/03/27 07:12:39;;;;;;;12.02;2.70;;;6.50;90.10;;;;;;5098320;28;20043;-90
2021/03/27 07:15:46;;;;;;;11.57;2.97;;;6.50;88.30;;;;;;5086217;28;20055;-93
2021/03/27 07:18:37;;;;;;;9.95;2.53;;;6.60;87.50;;;;;;5061234;28;20056;-92
2021/03/27 07:21:38;;;;;;;11.85;3.30;;;6.70;85.00;;;;;;5093699;28;20135;-89
2021/03/27 07:24:13;;;;;;;14.18;3.63;;;6.60;86.00;;;;;;5067441;28;20052;-92
2021/03/27 07:27:02;;;;;;;15.15;3.78;;;6.70;85.30;;;;;;5095332;28;20040;-90
2021/03/27 07:29:50;;;;;;;14.60;3.13;;;6.80;83.80;;;;;;5067976;28;20032;-94
2021/03/27 07:32:30;;;;;;;10.98;3.13;;;6.80;84.80;;;;;;5094180;28;20151;-88
2021/03/27 07:35:02;;;;;;;13.10;2.75;;;6.80;84.60;;;;;;5106686;28;20061;-91
2021/03/27 07:37:43;;;;;;;12.65;3.97;;;7.00;83.60;;;;;;5101366;28;20052;-94
2021/03/27 07:40:30;;;;;;;11.98;3.17;;;7.10;81.50;;;;;;5089997;28;20036;-93
2021/03/27 07:43:32;;;;;;;12.85;3.58;;;7.10;80.90;;;;;;5099402;28;20039;-91
2021/03/27 07:46:25;;;;;;;9.13;2.50;;;7.00;82.10;;;;;;5090226;28;20078;-92
2021/03/27 07:48:54;;;;;;;14.07;3.10;;;7.10;81.10;;;;;;5099877;28;20052;-91
2021/03/27 07:51:33;;;;;;;10.38;2.70;;;7.10;81.00;;;;;;5113943;28;20032;-90
2021/03/27 07:54:06;;;;;;;9.15;2.67;;;7.20;79.70;;;;;;5096783;28;20047;-92
2021/03/27 07:57:03;;;;;;;12.00;3.13;;;7.30;78.80;;;;;;5117737;27;20035;-90
2021/03/27 07:59:31;;;;;;;21.63;3.88;;;7.20;79.20;;;;;;5108702;27;20162;-91
2021/03/27 08:02:03;;;;;;;8.98;2.60;;;7.20;79.80;;;;;;5135126;28;20051;-91
2021/03/27 08:04:47;;;;;;;12.55;2.83;;;7.40;77.10;;;;;;5118830;28;20042;-90
2021/03/27 08:07:15;;;;;;;17.52;3.75;;;7.50;76.50;;;;;;5117885;28;20055;-92
2021/03/27 08:10:13;;;;;;;9.38;2.38;;;7.50;76.40;;;;;;5100692;27;20058;-90
2021/03/27 08:13:08;;;;;;;6.88;2.10;;;7.70;73.90;;;;;;5116033;28;20034;-91
2021/03/27 08:16:07;;;;;;;12.98;2.53;;;7.70;73.70;;;;;;5080113;28;20044;-91
2021/03/27 08:19:00;;;;;;;13.45;2.67;;;7.60;74.90;;;;;;5118986;28;20153;-89
2021/03/27 08:22:06;;;;;;;13.57;3.33;;;7.60;74.30;;;;;;5090764;28;20089;-90
2021/03/27 08:24:37;;;;;;;7.03;1.88;;;7.60;69.60;;;;;;5088771;28;20059;-89
2021/03/27 08:27:28;;;;;;;5.75;1.58;;;7.20;71.00;;;;;;5121404;27;20048;-89
2021/03/27 08:30:31;;;;;;;6.05;1.80;;;6.70;72.30;;;;;;5095038;28;20091;-90
2021/03/27 08:33:24;;;;;;;6.60;1.92;;;6.40;75.90;;;;;;5082942;28;20043;-91
2021/03/27 08:36:22;;;;;;;8.15;1.92;;;6.30;77.30;;;;;;5090432;28;20057;-89
2021/03/27 08:39:26;;;;;;;6.00;1.63;;;6.30;78.20;;;;;;5116031;27;20104;-89
2021/03/27 08:42:25;;;;;;;8.15;2.05;;;6.60;78.80;;;;;;5034301;28;20051;-89
2021/03/27 08:45:00;;;;;;;12.13;2.63;;;6.90;79.50;;;;;;5086816;28;20498;-91
2021/03/27 08:47:44;;;;;;;13.00;2.60;;;7.10;78.40;;;;;;5091463;28;20070;-90
2021/03/27 08:50:50;;;;;;;13.95;2.22;;;7.30;78.40;;;;;;5105850;28;20290;-91
2021/03/27 08:53:25;;;;;;;7.78;2.33;;;7.60;78.10;;;;;;5089535;28;20048;-89
2021/03/27 08:56:08;;;;;;;10.25;2.70;;;7.80;72.80;;;;;;5106149;28;20475;-90
2021/03/27 08:59:15;;;;;;;6.30;2.25;;;7.90;71.60;;;;;;5099432;28;20086;-90
2021/03/27 09:01:44;;;;;;;9.38;2.67;;;8.00;70.30;;;;;;5090570;28;20048;-89
2021/03/27 09:04:22;;;;;;;9.07;2.20;;;8.30;70.40;;;;;;5104796;28;20048;-91
2021/03/27 09:07:09;;;;;;;8.80;2.10;;;8.30;69.60;;;;;;5103009;28;20059;-92
2021/03/27 09:10:06;;;;;;;10.40;2.53;;;8.10;67.70;;;;;;5113013;28;20062;-91
2021/03/27 09:12:52;;;;;;;8.10;2.67;;;7.80;69.30;;;;;;5106527;28;20047;-91
2021/03/27 09:15:36;;;;;;;;;;;7.70;69.50;;;;;;5111002;28;20381;-90
2021/03/27 09:18:37;;;;;;;10.75;3.10;;;7.60;68.50;;;;;;5103921;28;19984;-85
2021/03/27 09:21:27;;;;;;;6.68;2.08;;;7.50;69.10;;;;;;5061216;28;20101;-88
2021/03/27 09:24:18;;;;;;;12.57;2.58;;;7.60;69.40;;;;;;5044483;28;20052;-87
2021/03/27 09:27:15;;;;;;;6.45;1.85;;;7.40;70.80;;;;;;5069752;28;20103;-87
2021/03/27 09:29:53;;;;;;;9.60;2.13;;;7.30;70.10;;;;;;5130049;28;20137;-88
2021/03/27 09:32:44;;;;;;;6.93;2.15;;;7.30;69.50;;;;;;5105652;28;20547;-89
2021/03/27 09:35:20;;;;;;;9.38;2.58;;;7.30;68.30;;;;;;5096380;28;20052;-89
2021/03/27 09:37:52;;;;;;;8.68;2.38;;;7.20;70.00;;;;;;5087694;28;20051;-87
2021/03/27 09:40:33;;;;;;;9.75;2.47;;;7.30;68.60;;;;;;5091602;28;20050;-89
2021/03/27 09:43:32;;;;;;;9.23;2.42;;;7.70;66.70;;;;;;5095431;28;20044;-87
2021/03/27 09:46:03;;;;;;;8.88;2.63;;;7.70;68.10;;;;;;5079545;28;20047;-89
2021/03/27 09:48:53;;;;;;;11.15;2.55;;;7.70;67.70;;;;;;5102495;28;20044;-89
2021/03/27 09:51:34;;;;;;;13.98;3.35;;;7.20;71.40;;;;;;5077481;28;20488;-88
2021/03/27 09:54:35;;;;;;;13.32;3.28;;;7.10;73.70;;;;;;5071843;28;20450;-88
2021/03/27 09:57:33;;;;;;;14.35;3.38;;;7.60;73.50;;;;;;5088197;28;20040;-88
2021/03/27 10:00:19;;;;;;;13.68;3.15;;;7.70;71.00;;;;;;5061709;28;20488;-88
2021/03/27 10:03:01;;;;;;;5.28;1.83;;;7.60;71.50;;;;;;5093574;28;20182;-86
2021/03/27 10:05:36;;;;;;;12.10;2.88;;;7.60;65.80;;;;;;5098072;28;20072;-87
2021/03/27 10:08:04;;;;;;;14.90;2.90;;;7.50;66.60;;;;;;5099782;28;20044;-88
2021/03/27 10:10:48;;;;;;;8.48;2.42;;;7.40;69.00;;;;;;5093063;28;20052;-88
2021/03/27 10:13:54;;;;;;;11.65;2.92;;;7.70;69.60;;;;;;5108116;28;20047;-88
2021/03/27 10:16:38;;;;;;;4.60;2.15;;;7.90;69.90;;;;;;5071320;28;20048;-91
2021/03/27 10:19:27;;;;;;;6.93;1.52;;;7.90;66.10;;;;;;5077873;28;20124;-89
2021/03/27 10:21:59;;;;;;;12.32;2.65;;;7.90;65.10;;;;;;5086673;27;20494;-93
2021/03/27 10:25:06;;;;;;;5.90;1.80;;;7.70;69.20;;;;;;5109594;28;20044;-93
2021/03/27 10:27:41;;;;;;;10.32;2.40;;;7.40;68.70;;;;;;5047309;28;20040;-93
2021/03/27 10:30:25;;;;;;;;;;;7.30;68.70;;;;;;5102538;28;20068;-92
2021/03/27 10:33:12;;;;;;;4.28;1.45;;;7.10;68.40;;;;;;5063869;28;19920;-93
2021/03/27 10:35:47;;;;;;;6.95;1.50;;;6.90;72.20;;;;;;5106333;28;20482;-95
2021/03/27 10:38:22;;;;;;;6.55;1.92;;;6.60;74.90;;;;;;5094646;28;20079;-93
2021/03/27 10:41:26;;;;;;;10.65;2.63;;;6.60;76.60;;;;;;5096498;28;20051;-93
2021/03/27 10:43:59;;;;;;;12.90;2.67;;;6.80;76.40;;;;;;4989483;28;20128;-94
2021/03/27 10:46:50;;;;;;;10.45;2.35;;;7.10;77.20;;;;;;5072564;28;20040;-93
2021/03/27 10:49:43;;;;;;;8.07;1.67;;;7.40;75.20;;;;;;5102712;28;20073;-91
2021/03/27 10:52:31;;;;;;;13.15;2.72;;;7.50;75.10;;;;;;5072095;28;20058;-92
2021/03/27 10:55:31;;;;;;;14.65;2.65;;;7.50;74.90;;;;;;4981057;28;20401;-93
2021/03/27 10:58:23;;;;;;;3.42;1.23;;;7.60;75.00;;;;;;5018287;28;20044;-91
2021/03/27 11:01:32;;;;;;;8.30;2.25;;;7.30;73.00;;;;;;5030079;28;20048;-92
2021/03/27 11:08:11;;;;;;;7.22;2.20;;;6.70;77.70;;;;;;4881813;28;20102;-93
2021/03/27 11:10:49;;;;;;;;;;;6.50;78.40;;;;;;4836351;29;20640;-89
2021/03/27 11:14:09;;;;;;;5.85;1.58;;;6.40;80.60;;;;;;5009693;27;884550;-94
2021/03/27 11:16:47;;;;;;;9.00;2.10;;;6.70;79.70;;;;;;5087217;28;20068;-87
2021/03/27 11:19:42;;;;;;;4.97;1.85;;;6.60;80.00;;;;;;5100521;28;20048;-91
2021/03/27 11:22:35;;;;;;;8.50;1.90;;;6.50;78.60;;;;;;5074834;28;20060;-91
2021/03/27 11:25:22;;;;;;;5.60;1.55;;;6.10;82.60;;;;;;5058879;28;20145;-91
2021/03/27 11:28:15;;;;;;;2.72;1.40;;;5.90;82.20;;;;;;5106868;28;20044;-94
2021/03/27 11:31:06;;;;;;;5.07;1.35;;;5.90;78.40;;;;;;5103194;28;20048;-94
2021/03/27 11:33:56;;;;;;;3.08;1.05;;;5.90;76.40;;;;;;5081380;28;20481;-93
2021/03/27 11:36:30;;;;;;;4.50;1.50;;;6.00;74.90;;;;;;5086151;28;20423;-92
2021/03/27 11:39:13;;;;;;;3.60;1.40;;;5.90;77.70;;;;;;5101699;28;20114;-92
2021/03/27 11:42:03;;;;;;;4.97;1.55;;;5.70;80.30;;;;;;5096351;28;20060;-90
2021/03/27 11:44:49;;;;;;;7.75;1.80;;;5.40;84.10;;;;;;5083409;28;20067;-91
2021/03/27 11:47:39;;;;;;;6.30;1.80;;;5.30;85.50;;;;;;5067990;28;20060;-91
2021/03/27 11:50:12;;;;;;;11.07;2.70;;;5.00;88.00;;;;;;5124043;28;20074;-95
2021/03/27 11:53:02;;;;;;;6.35;1.73;;;4.90;89.50;;;;;;5110288;28;20427;-96
2021/03/27 11:55:46;;;;;;;11.73;2.50;;;4.90;89.90;;;;;;5101023;28;20135;-95
2021/03/27 11:58:25;;;;;;;11.30;2.70;;;4.90;90.30;;;;;;5106646;28;20071;-96
2021/03/27 12:01:06;;;;;;;8.38;2.30;;;5.20;90.30;;;;;;5086309;28;20057;-96
2021/03/27 12:03:48;;;;;;;12.35;2.50;;;5.50;90.10;;;;;;5115787;28;20044;-96
2021/03/27 12:06:29;;;;;;;11.43;2.25;;;5.70;89.50;;;;;;5087671;28;20108;-87
2021/03/27 12:09:20;;;;;;;11.93;2.45;;;5.90;89.00;;;;;;5126171;28;20104;-93
2021/03/27 12:11:52;;;;;;;10.20;2.00;;;6.20;89.00;;;;;;5134128;28;20044;-90
2021/03/27 12:14:50;;;;;;;12.90;2.65;;;6.40;89.10;;;;;;5189613;22;20075;-87
2021/03/27 12:18:06;;;;;;;15.65;2.72;;;6.50;88.80;;;;;;4987689;28;20136;-89
2021/03/27 12:21:00;;;;;;;11.55;2.47;;;6.80;88.90;;;;;;4934535;28;20058;-90
2021/03/27 12:23:52;;;;;;;10.77;2.45;;;6.90;89.30;;;;;;4888187;28;20127;-95
2021/03/27 12:26:44;;;;;;;12.77;2.28;;;7.30;84.60;;;;;;4915843;28;20113;-92
2021/03/27 12:29:19;;;;;;;9.52;2.33;;;7.60;81.30;;;;;;4966300;28;20043;-94
2021/03/27 12:32:03;;;;;;;8.40;2.60;;;7.70;78.80;;;;;;4960379;28;20062;-94
2021/03/27 12:34:38;;;;;;;10.98;2.60;;;7.70;79.00;;;;;;4923137;28;20526;-95
2021/03/27 12:37:27;;;;;;;17.67;2.97;;;7.90;78.80;;;;;;4942062;28;20058;-93
2021/03/27 12:40:19;;;;;;;13.80;2.70;;;8.30;78.10;;;;;;4962568;28;20062;-94
2021/03/27 12:43:03;;;;;;;9.88;2.80;;;8.50;79.80;;;;;;4965641;28;20058;-95
2021/03/27 12:45:35;;;;;;;12.90;2.50;;;8.80;75.50;;;;;;4990537;28;20078;-93
2021/03/27 12:48:38;;;;;;;10.80;2.53;;;8.70;74.90;;;;;;5023697;28;20054;-92
2021/03/27 12:51:37;;;;;;;10.73;2.88;;;8.70;73.50;;;;;;4986181;28;20058;-92
2021/03/27 12:54:32;;;;;;;10.80;2.17;;;8.60;74.40;;;;;;4996986;28;20124;-94
2021/03/27 12:57:04;;;;;;;11.20;3.30;;;8.70;73.50;;;;;;5014670;28;20057;-93
2021/03/27 12:59:39;;;;;;;9.80;2.63;;;8.90;75.70;;;;;;5024711;28;20052;-96
2021/03/27 13:05:35;;;;;;;10.77;2.55;;;9.10;73.20;;;;;;4743714;26;20055;-95
2021/03/27 13:08:18;;;;;;;7.15;2.08;;;9.00;69.40;;;;;;4870410;28;20116;-90
2021/03/27 13:16:28;;;;;;;11.60;3.38;;;9.10;71.70;;;;;;5050933;22;20085;-91
2021/03/27 13:19:15;;;;;;;3.92;1.50;;;8.40;75.40;;;;;;4926725;28;20129;-90
2021/03/27 13:22:08;;;;;;;7.47;1.73;;;7.90;77.40;;;;;;4970651;28;20101;-91
2021/03/27 13:24:34;;;;;;;5.15;1.90;;;7.50;80.90;;;;;;4986135;28;20516;-93
2021/03/27 13:27:08;;;;;;;5.72;1.65;;;7.30;80.70;;;;;;4964216;28;20135;-92
2021/03/27 13:29:46;;;;;;;5.80;1.40;;;7.10;80.40;;;;;;4973109;28;20073;-93
2021/03/27 13:32:15;;;;;;;4.68;1.58;;;7.00;79.70;;;;;;4993537;28;20105;-91
2021/03/27 13:34:49;;;;;;;1.02;0.93;;;6.90;80.70;;;;;;4939848;28;20051;-90
2021/03/27 13:37:25;;;;;;;5.95;2.00;;;7.00;80.30;;;;;;4978117;28;20054;-93
2021/03/27 13:39:58;;;;;;;6.18;1.98;;;7.20;80.40;;;;;;4976811;28;20130;-94
2021/03/27 13:42:27;;;;;;;5.13;1.92;;;7.60;79.00;;;;;;4985179;28;20066;-96
2021/03/27 13:45:00;;;;;;;7.03;1.67;;;7.80;77.60;;;;;;4966935;28;20066;-96
2021/03/27 13:47:43;;;;;;;10.48;2.65;;;7.90;77.70;;;;;;4984182;28;20061;-92
2021/03/27 13:50:28;;;;;;;9.20;2.13;;;8.00;78.10;;;;;;4980114;28;20058;-96
2021/03/27 13:53:02;;;;;;;;;;;8.10;78.50;;;;;;4958592;28;20050;-94
2021/03/27 13:55:44;;;;;;;13.98;2.97;;;8.30;79.80;;;;;;4989839;28;20011;-95
2021/03/27 13:58:10;;;;;;;11.68;2.95;;;8.70;77.70;;;;;;4982583;28;20490;-95
2021/03/27 14:01:20;;;;;;;13.23;2.22;;;8.90;78.20;;;;;;4984544;28;20049;-94
2021/03/27 14:03:59;;;;;;;9.80;2.40;;;9.00;75.70;;;;;;4970204;28;20053;-92
2021/03/27 14:06:43;;;;;;;19.52;3.28;;;8.80;76.40;;;;;;4982392;28;20081;-93
2021/03/27 14:09:34;;;;;;;14.98;3.50;;;8.80;75.70;;;;;;4979181;28;20108;-95
2021/03/27 14:12:26;;;;;;;10.52;3.33;;;8.90;75.70;;;;;;4993047;28;20628;-95
2021/03/27 14:15:04;;;;;;;14.35;2.60;;;9.20;73.30;;;;;;4958689;28;20060;-94
2021/03/27 14:18:04;;;;;;;10.00;2.17;;;9.50;73.50;;;;;;4999612;28;20121;-95
2021/03/27 14:20:39;;;;;;;12.90;3.05;;;9.50;70.80;;;;;;4973319;28;20052;-94
2021/03/27 14:23:43;;;;;;;11.85;2.75;;;9.40;68.40;;;;;;4979447;28;20541;-93
2021/03/27 14:26:58;;;;;;;14.07;3.10;;;9.20;69.70;;;;;;4970557;28;20081;-95
2021/03/27 14:29:42;;;;;;;11.70;2.83;;;8.80;72.70;;;;;;4961244;28;20058;-92
2021/03/27 14:32:20;;;;;;;12.13;2.65;;;8.80;71.40;;;;;;4971569;28;20054;-91
2021/03/27 14:35:04;;;;;;;12.50;3.13;;;8.90;71.00;;;;;;5000993;28;20060;-86